createdAt,value
2023-02-05T00:00:21.992Z,4.66
2023-02-05T00:01:29.757Z,4.66
2023-02-05T00:03:27.510Z,4.64
2023-02-05T00:04:27.389Z,4.60
2023-02-05T00:06:32.874Z,4.53
2023-02-05T00:07:32.818Z,4.58
2023-02-05T00:09:38.258Z,4.53
2023-02-05T00:10:38.227Z,4.49
2023-02-05T00:11:38.207Z,4.48
2023-02-05T00:12:38.188Z,4.57
2023-02-05T00:13:38.184Z,4.53
2023-02-05T00:14:38.155Z,4.42
2023-02-05T00:15:38.137Z,4.45
2023-02-05T00:16:38.179Z,4.39
2023-02-05T00:17:38.098Z,4.36
2023-02-05T00:18:38.086Z,4.42
2023-02-05T00:19:38.055Z,4.38
2023-02-05T00:20:38.049Z,4.25
2023-02-05T00:21:38.024Z,4.42
2023-02-05T00:22:38.001Z,4.25
2023-02-05T00:23:37.982Z,4.34
2023-02-05T00:24:37.960Z,4.31
2023-02-05T00:25:37.945Z,4.27
2023-02-05T00:26:37.924Z,4.31
2023-02-05T00:27:37.907Z,4.28
2023-02-05T00:28:37.884Z,4.32
2023-02-05T00:29:37.870Z,4.36
2023-02-05T00:30:37.947Z,4.32
2023-02-05T00:31:37.946Z,4.36
2023-02-05T00:32:37.809Z,4.39
2023-02-05T00:33:37.801Z,4.40
2023-02-05T00:34:37.784Z,4.39
2023-02-05T00:35:37.756Z,4.39
2023-02-05T00:36:37.746Z,4.45
2023-02-05T00:37:37.720Z,4.39
2023-02-05T00:38:37.698Z,4.43
2023-02-05T00:39:37.682Z,4.43
2023-02-05T00:40:37.669Z,4.42
2023-02-05T00:41:37.641Z,4.48
2023-02-05T00:42:37.635Z,4.53
2023-02-05T00:43:37.601Z,4.49
2023-02-05T00:44:37.583Z,4.50
2023-02-05T00:45:37.566Z,4.42
2023-02-05T00:46:37.544Z,4.42
2023-02-05T00:47:37.529Z,4.31
2023-02-05T00:48:37.507Z,4.31
2023-02-05T00:49:37.490Z,4.14
2023-02-05T00:50:37.480Z,4.18
2023-02-05T00:51:37.456Z,4.14
2023-02-05T00:52:37.463Z,4.10
2023-02-05T00:53:37.436Z,4.12
2023-02-05T00:54:37.413Z,4.13
2023-02-05T00:55:37.378Z,4.07
2023-02-05T00:56:37.356Z,4.14
2023-02-05T00:57:37.347Z,4.09
2023-02-05T00:58:37.324Z,3.99
2023-02-05T00:59:37.304Z,3.94
2023-02-05T01:00:37.288Z,3.85
2023-02-05T01:01:37.309Z,3.85
2023-02-05T01:02:37.296Z,3.84
2023-02-05T01:03:37.243Z,3.67
2023-02-05T01:04:37.209Z,3.71
2023-02-05T01:05:37.208Z,3.74
2023-02-05T01:06:37.186Z,3.76
2023-02-05T01:07:37.151Z,3.77
2023-02-05T01:08:37.132Z,3.70
2023-02-05T01:09:37.125Z,3.73
2023-02-05T01:10:37.096Z,3.76
2023-02-05T01:11:37.080Z,3.78
2023-02-05T01:12:37.070Z,3.68
2023-02-05T01:13:37.069Z,3.66
2023-02-05T01:14:37.034Z,3.70
2023-02-05T01:15:37.374Z,3.73
2023-02-05T01:16:36.984Z,3.67
2023-02-05T01:17:36.972Z,3.68
2023-02-05T01:18:36.947Z,3.67
2023-02-05T01:19:36.930Z,3.74
2023-02-05T01:20:36.910Z,3.71
2023-02-05T01:21:36.893Z,3.64
2023-02-05T01:22:36.875Z,3.77
2023-02-05T01:23:36.853Z,3.78
2023-02-05T01:24:36.839Z,3.76
2023-02-05T01:25:36.824Z,3.77
2023-02-05T01:26:36.798Z,3.74
2023-02-05T01:27:36.785Z,3.67
2023-02-05T01:28:36.833Z,3.71
2023-02-05T01:29:36.744Z,3.71
2023-02-05T01:30:36.800Z,3.70
2023-02-05T01:31:36.834Z,3.67
2023-02-05T01:32:36.684Z,3.68
2023-02-05T01:33:36.667Z,3.68
2023-02-05T01:34:36.648Z,3.64
2023-02-05T01:35:36.788Z,3.67
2023-02-05T01:36:36.606Z,3.61
2023-02-05T01:37:36.589Z,3.66
2023-02-05T01:38:36.566Z,3.53
2023-02-05T01:39:36.559Z,3.49
2023-02-05T01:40:36.532Z,3.49
2023-02-05T01:41:36.514Z,3.37
2023-02-05T01:42:36.497Z,3.50
2023-02-05T01:43:36.475Z,3.45
2023-02-05T01:44:36.545Z,3.41
2023-02-05T01:45:36.611Z,3.43
2023-02-05T01:46:36.499Z,3.41
2023-02-05T01:47:36.432Z,3.45
2023-02-05T01:48:36.390Z,3.48
2023-02-05T01:49:36.357Z,3.41
2023-02-05T01:50:36.337Z,3.41
2023-02-05T01:51:36.322Z,3.37
2023-02-05T01:52:36.361Z,3.24
2023-02-05T01:53:36.287Z,3.31
2023-02-05T01:54:36.260Z,3.31
2023-02-05T01:55:36.361Z,3.33
2023-02-05T01:56:36.228Z,3.27
2023-02-05T01:57:36.201Z,3.22
2023-02-05T01:58:36.187Z,3.11
2023-02-05T01:59:36.158Z,3.16
2023-02-05T02:00:36.233Z,3.15
2023-02-05T02:01:36.132Z,3.16
2023-02-05T02:02:36.101Z,3.08
2023-02-05T02:03:36.096Z,3.03
2023-02-05T02:04:36.076Z,3.15
2023-02-05T02:05:36.232Z,3.13
2023-02-05T02:06:36.038Z,3.06
2023-02-05T02:07:36.009Z,3.08
2023-02-05T02:08:35.981Z,3.08
2023-02-05T02:09:35.978Z,3.03
2023-02-05T02:10:36.025Z,3.00
2023-02-05T02:11:35.926Z,3.00
2023-02-05T02:12:35.906Z,3.01
2023-02-05T02:13:35.913Z,2.93
2023-02-05T02:14:35.872Z,2.97
2023-02-05T02:15:36.182Z,2.97
2023-02-05T02:16:35.834Z,2.85
2023-02-05T02:17:35.812Z,2.83
2023-02-05T02:18:35.794Z,2.87
2023-02-05T02:19:35.771Z,2.85
2023-02-05T02:20:35.747Z,2.90
2023-02-05T02:21:35.733Z,2.88
2023-02-05T02:22:35.717Z,2.75
2023-02-05T02:23:35.692Z,2.77
2023-02-05T02:24:35.670Z,2.69
2023-02-05T02:25:35.983Z,2.70
2023-02-05T02:26:35.637Z,2.62
2023-02-05T02:27:35.630Z,2.55
2023-02-05T02:28:35.607Z,2.54
2023-02-05T02:29:35.577Z,2.54
2023-02-05T02:30:35.620Z,2.47
2023-02-05T02:31:35.609Z,2.44
2023-02-05T02:32:35.525Z,2.52
2023-02-05T02:33:35.522Z,2.44
2023-02-05T02:34:35.474Z,2.41
2023-02-05T02:35:35.806Z,2.28
2023-02-05T02:36:35.442Z,2.23
2023-02-05T02:37:35.419Z,2.15
2023-02-05T02:38:35.397Z,2.07
2023-02-05T02:39:35.529Z,1.98
2023-02-05T02:40:35.359Z,1.84
2023-02-05T02:41:35.337Z,1.92
2023-02-05T02:42:35.323Z,1.79
2023-02-05T02:43:35.302Z,1.71
2023-02-05T02:44:35.281Z,1.70
2023-02-05T02:45:35.488Z,1.68
2023-02-05T02:46:35.307Z,1.67
2023-02-05T02:47:35.228Z,1.60
2023-02-05T02:48:35.203Z,1.61
2023-02-05T02:49:35.188Z,1.56
2023-02-05T02:50:35.168Z,1.52
2023-02-05T02:51:35.151Z,1.66
2023-02-05T02:52:35.124Z,1.60
2023-02-05T02:53:35.110Z,1.74
2023-02-05T02:54:35.089Z,1.64
2023-02-05T02:55:35.482Z,1.66
2023-02-05T02:56:35.053Z,1.79
2023-02-05T02:57:35.043Z,1.75
2023-02-05T02:58:35.010Z,1.70
2023-02-05T02:59:34.989Z,1.63
2023-02-05T03:00:35.033Z,1.57
2023-02-05T03:01:34.980Z,1.70
2023-02-05T03:02:34.935Z,1.56
2023-02-05T03:03:34.921Z,1.56
2023-02-05T03:04:34.909Z,1.58
2023-02-05T03:05:35.190Z,1.56
2023-02-05T03:06:34.867Z,1.52
2023-02-05T03:07:34.836Z,1.57
2023-02-05T03:08:34.832Z,1.63
2023-02-05T03:09:34.797Z,1.71
2023-02-05T03:10:34.781Z,1.68
2023-02-05T03:11:34.757Z,1.68
2023-02-05T03:12:34.742Z,1.75
2023-02-05T03:13:34.727Z,1.74
2023-02-05T03:14:34.718Z,1.64
2023-02-05T03:15:35.095Z,1.64
2023-02-05T03:16:34.669Z,1.61
2023-02-05T03:17:34.645Z,1.60
2023-02-05T03:18:34.618Z,1.50
2023-02-05T03:19:34.631Z,1.56
2023-02-05T03:20:34.580Z,1.60
2023-02-05T03:21:34.606Z,1.57
2023-02-05T03:22:34.541Z,1.52
2023-02-05T03:23:34.523Z,1.60
2023-02-05T03:24:34.501Z,1.66
2023-02-05T03:25:34.811Z,1.74
2023-02-05T03:26:34.460Z,1.84
2023-02-05T03:27:34.441Z,1.88
2023-02-05T03:28:34.422Z,1.88
2023-02-05T03:29:34.400Z,2.04
2023-02-05T03:30:34.405Z,2.12
2023-02-05T03:31:34.408Z,2.10
2023-02-05T03:32:34.341Z,2.18
2023-02-05T03:33:34.332Z,2.21
2023-02-05T03:34:34.308Z,2.23
2023-02-05T03:35:34.563Z,2.25
2023-02-05T03:36:34.262Z,2.32
2023-02-05T03:37:34.241Z,2.25
2023-02-05T03:38:34.222Z,2.30
2023-02-05T03:39:34.205Z,2.23
2023-02-05T03:40:34.188Z,2.28
2023-02-05T03:41:34.162Z,2.22
2023-02-05T03:42:34.144Z,2.16
2023-02-05T03:43:34.129Z,2.14
2023-02-05T03:44:34.128Z,2.10
2023-02-05T03:45:34.336Z,2.05
2023-02-05T03:46:34.069Z,2.03
2023-02-05T03:47:34.047Z,2.04
2023-02-05T03:48:34.025Z,1.86
2023-02-05T03:49:34.021Z,1.89
2023-02-05T03:50:33.988Z,1.98
2023-02-05T03:51:33.990Z,1.97
2023-02-05T03:52:33.948Z,2.05
2023-02-05T03:53:33.927Z,2.01
2023-02-05T03:54:33.906Z,2.10
2023-02-05T03:55:34.169Z,2.08
2023-02-05T03:56:33.864Z,2.01
2023-02-05T03:57:33.846Z,2.04
2023-02-05T03:58:33.828Z,1.97
2023-02-05T03:59:33.822Z,2.04
2023-02-05T04:00:33.800Z,2.03
2023-02-05T04:01:33.764Z,2.15
2023-02-05T04:02:33.757Z,2.08
2023-02-05T04:03:33.754Z,2.19
2023-02-05T04:04:33.739Z,2.23
2023-02-05T04:05:34.092Z,2.19
2023-02-05T04:06:33.721Z,2.22
2023-02-05T04:07:33.764Z,2.23
2023-02-05T04:08:33.722Z,2.25
2023-02-05T04:09:33.608Z,2.21
2023-02-05T04:10:33.588Z,2.25
2023-02-05T04:11:33.694Z,2.26
2023-02-05T04:12:33.580Z,2.26
2023-02-05T04:13:33.534Z,2.34
2023-02-05T04:14:33.591Z,2.41
2023-02-05T04:15:33.854Z,2.55
2023-02-05T04:16:33.521Z,2.50
2023-02-05T04:17:33.453Z,2.52
2023-02-05T04:18:33.437Z,2.59
2023-02-05T04:19:33.408Z,2.65
2023-02-05T04:20:33.395Z,2.77
2023-02-05T04:21:33.393Z,2.72
2023-02-05T04:22:33.364Z,2.75
2023-02-05T04:23:33.334Z,2.95
2023-02-05T04:24:33.313Z,2.90
2023-02-05T04:25:33.687Z,2.88
2023-02-05T04:26:33.271Z,2.98
2023-02-05T04:27:33.254Z,3.01
2023-02-05T04:28:33.245Z,3.03
2023-02-05T04:29:33.215Z,3.05
2023-02-05T04:30:33.212Z,3.08
2023-02-05T04:31:33.225Z,3.12
2023-02-05T04:32:33.198Z,3.09
2023-02-05T04:33:33.148Z,3.11
2023-02-05T04:34:33.122Z,3.13
2023-02-05T04:35:33.403Z,3.16
2023-02-05T04:36:33.088Z,3.21
2023-02-05T04:37:33.068Z,3.18
2023-02-05T04:38:33.048Z,3.31
2023-02-05T04:39:33.025Z,3.24
2023-02-05T04:40:33.007Z,3.30
2023-02-05T04:41:32.989Z,3.19
2023-02-05T04:42:32.971Z,3.34
2023-02-05T04:43:32.948Z,3.33
2023-02-05T04:44:32.929Z,3.33
2023-02-05T04:45:33.298Z,3.22
2023-02-05T04:46:32.893Z,3.27
2023-02-05T04:47:32.877Z,3.27
2023-02-05T04:48:32.857Z,3.33
2023-02-05T04:49:32.832Z,3.26
2023-02-05T04:50:32.815Z,3.29
2023-02-05T04:51:32.794Z,3.30
2023-02-05T04:52:32.774Z,3.27
2023-02-05T04:53:32.765Z,3.34
2023-02-05T04:54:32.738Z,3.36
2023-02-05T04:55:32.969Z,3.41
2023-02-05T04:56:32.731Z,3.37
2023-02-05T04:57:32.677Z,3.36
2023-02-05T04:58:32.667Z,3.36
2023-02-05T04:59:32.644Z,3.45
2023-02-05T05:00:32.624Z,3.36
2023-02-05T05:01:32.686Z,3.40
2023-02-05T05:02:32.676Z,3.45
2023-02-05T05:03:32.562Z,3.43
2023-02-05T05:04:32.573Z,3.46
2023-02-05T05:05:32.834Z,3.41
2023-02-05T05:06:32.516Z,3.49
2023-02-05T05:07:32.489Z,3.58
2023-02-05T05:08:32.471Z,3.53
2023-02-05T05:09:32.456Z,3.61
2023-02-05T05:10:32.436Z,3.64
2023-02-05T05:11:32.420Z,3.64
2023-02-05T05:12:32.391Z,3.64
2023-02-05T05:13:32.378Z,3.63
2023-02-05T05:14:32.354Z,3.70
2023-02-05T05:15:32.746Z,3.73
2023-02-05T05:16:32.315Z,3.67
2023-02-05T05:17:32.312Z,3.68
2023-02-05T05:18:32.280Z,3.66
2023-02-05T05:19:32.255Z,3.61
2023-02-05T05:20:32.240Z,3.67
2023-02-05T05:21:32.234Z,3.70
2023-02-05T05:22:32.204Z,3.66
2023-02-05T05:23:32.192Z,3.66
2023-02-05T05:24:32.166Z,3.77
2023-02-05T05:25:32.635Z,3.71
2023-02-05T05:26:32.131Z,3.76
2023-02-05T05:27:32.103Z,3.76
2023-02-05T05:28:32.086Z,3.66
2023-02-05T05:29:32.064Z,3.78
2023-02-05T05:30:32.057Z,3.76
2023-02-05T05:31:32.026Z,3.76
2023-02-05T05:32:32.010Z,3.76
2023-02-05T05:33:31.990Z,3.82
2023-02-05T05:34:31.979Z,3.86
2023-02-05T05:35:32.296Z,3.91
2023-02-05T05:36:31.942Z,3.85
2023-02-05T05:37:31.917Z,3.78
2023-02-05T05:38:31.895Z,3.82
2023-02-05T05:39:31.877Z,3.84
2023-02-05T05:40:31.858Z,3.82
2023-02-05T05:41:31.848Z,3.91
2023-02-05T05:42:31.835Z,3.88
2023-02-05T05:43:31.802Z,3.89
2023-02-05T05:44:31.790Z,3.92
2023-02-05T05:45:32.160Z,4.00
2023-02-05T05:46:31.747Z,4.00
2023-02-05T05:47:31.734Z,4.00
2023-02-05T05:48:31.707Z,3.94
2023-02-05T05:49:31.700Z,4.07
2023-02-05T05:50:31.677Z,4.04
2023-02-05T05:51:31.650Z,4.12
2023-02-05T05:52:32.802Z,4.12
2023-02-05T05:53:31.611Z,4.16
2023-02-05T05:54:31.592Z,4.09
2023-02-05T05:55:31.800Z,4.04
2023-02-05T05:56:31.560Z,4.16
2023-02-05T05:57:31.538Z,4.12
2023-02-05T05:58:31.529Z,4.13
2023-02-05T05:59:31.502Z,4.06
2023-02-05T06:00:31.476Z,4.21
2023-02-05T06:01:31.455Z,4.20
2023-02-05T06:02:31.490Z,4.12
2023-02-05T06:03:31.424Z,4.20
2023-02-05T06:04:31.431Z,4.18
2023-02-05T06:05:31.542Z,4.13
2023-02-05T06:06:31.363Z,4.12
2023-02-05T06:07:31.346Z,4.14
2023-02-05T06:08:31.339Z,4.14
2023-02-05T06:09:31.307Z,4.06
2023-02-05T06:10:31.287Z,4.04
2023-02-05T06:11:31.273Z,4.03
2023-02-05T06:12:31.253Z,4.00
2023-02-05T06:13:31.245Z,3.88
2023-02-05T06:14:31.210Z,3.88
2023-02-05T06:15:31.191Z,3.77
2023-02-05T06:16:31.176Z,3.82
2023-02-05T06:17:31.157Z,3.78
2023-02-05T06:18:31.159Z,3.82
2023-02-05T06:19:31.113Z,3.73
2023-02-05T06:20:31.101Z,3.76
2023-02-05T06:21:31.077Z,3.66
2023-02-05T06:22:31.062Z,3.76
2023-02-05T06:23:31.041Z,3.77
2023-02-05T06:24:31.157Z,3.76
2023-02-05T06:25:31.000Z,3.70
2023-02-05T06:26:30.984Z,3.74
2023-02-05T06:27:30.962Z,3.73
2023-02-05T06:28:30.946Z,3.77
2023-02-05T06:29:30.930Z,3.77
2023-02-05T06:30:30.912Z,3.70
2023-02-05T06:31:31.068Z,3.68
2023-02-05T06:32:30.870Z,3.71
2023-02-05T06:33:30.865Z,3.70
2023-02-05T06:34:30.834Z,3.66
2023-02-05T06:35:30.818Z,3.73
2023-02-05T06:36:30.796Z,3.68
2023-02-05T06:37:46.326Z,3.67
2023-02-05T06:38:30.770Z,3.67
2023-02-05T06:39:30.744Z,3.63
2023-02-05T06:40:30.720Z,3.64
2023-02-05T06:41:30.716Z,3.55
2023-02-05T06:42:30.688Z,3.66
2023-02-05T06:43:30.671Z,3.70
2023-02-05T06:44:30.644Z,3.58
2023-02-05T06:45:30.633Z,3.50
2023-02-05T06:46:30.628Z,3.50
2023-02-05T06:47:30.586Z,3.49
2023-02-05T06:48:30.570Z,3.41
2023-02-05T06:49:30.555Z,3.40
2023-02-05T06:50:30.548Z,3.41
2023-02-05T06:51:30.513Z,3.41
2023-02-05T06:52:30.507Z,3.37
2023-02-05T06:53:30.473Z,3.50
2023-02-05T06:54:30.473Z,3.41
2023-02-05T06:55:30.436Z,3.37
2023-02-05T06:56:30.416Z,3.43
2023-02-05T06:57:30.395Z,3.40
2023-02-05T06:58:30.408Z,3.53
2023-02-05T06:59:30.360Z,3.45
2023-02-05T07:00:32.340Z,3.41
2023-02-05T07:01:30.343Z,3.43
2023-02-05T07:02:30.354Z,3.33
2023-02-05T07:03:30.286Z,3.29
2023-02-05T07:04:30.263Z,3.31
2023-02-05T07:05:30.254Z,3.26
2023-02-05T07:06:30.243Z,3.31
2023-02-05T07:07:30.219Z,3.24
2023-02-05T07:08:30.207Z,3.29
2023-02-05T07:09:30.171Z,3.24
2023-02-05T07:10:30.153Z,3.11
2023-02-05T07:11:30.142Z,3.15
2023-02-05T07:12:30.121Z,3.15
2023-02-05T07:13:30.118Z,3.24
2023-02-05T07:14:30.075Z,3.29
2023-02-05T07:15:30.065Z,3.26
2023-02-05T07:16:30.038Z,3.22
2023-02-05T07:17:30.025Z,3.24
2023-02-05T07:18:30.000Z,3.27
2023-02-05T07:19:29.982Z,3.33
2023-02-05T07:20:29.964Z,3.34
2023-02-05T07:21:29.980Z,3.27
2023-02-05T07:22:29.929Z,3.31
2023-02-05T07:23:29.900Z,3.27
2023-02-05T07:24:29.894Z,3.26
2023-02-05T07:25:29.860Z,3.31
2023-02-05T07:26:29.842Z,3.34
2023-02-05T07:27:29.824Z,3.27
2023-02-05T07:28:29.806Z,3.27
2023-02-05T07:29:29.784Z,3.26
2023-02-05T07:30:29.777Z,3.22
2023-02-05T07:31:29.839Z,3.24
2023-02-05T07:32:29.736Z,3.24
2023-02-05T07:33:29.715Z,3.31
2023-02-05T07:34:29.684Z,3.31
2023-02-05T07:35:29.666Z,3.33
2023-02-05T07:36:29.650Z,3.37
2023-02-05T07:37:29.624Z,3.40
2023-02-05T07:38:29.605Z,3.45
2023-02-05T07:39:29.589Z,3.52
2023-02-05T07:40:29.697Z,3.55
2023-02-05T07:41:29.548Z,3.66
2023-02-05T07:42:31.523Z,3.66
2023-02-05T07:43:29.508Z,3.66
2023-02-05T07:44:29.483Z,3.63
2023-02-05T07:45:29.478Z,3.67
2023-02-05T07:46:29.488Z,3.70
2023-02-05T07:47:29.427Z,3.70
2023-02-05T07:48:29.405Z,3.61
2023-02-05T07:49:29.392Z,3.68
2023-02-05T07:50:29.376Z,3.81
2023-02-05T07:51:29.929Z,3.82
2023-02-05T07:52:29.327Z,3.74
2023-02-05T07:53:29.321Z,3.77
2023-02-05T07:54:29.288Z,3.84
2023-02-05T07:55:29.267Z,3.81
2023-02-05T07:56:29.250Z,3.78
2023-02-05T07:57:29.231Z,3.82
2023-02-05T07:58:29.208Z,3.88
2023-02-05T07:59:29.195Z,3.85
2023-02-05T08:00:29.170Z,3.91
2023-02-05T08:01:29.153Z,3.94
2023-02-05T08:02:29.135Z,3.94
2023-02-05T08:03:29.116Z,4.09
2023-02-05T08:04:29.151Z,4.12
2023-02-05T08:05:29.130Z,4.06
2023-02-05T08:06:29.058Z,4.07
2023-02-05T08:07:29.040Z,4.09
2023-02-05T08:08:29.016Z,4.09
2023-02-05T08:09:29.570Z,4.09
2023-02-05T08:10:28.977Z,4.16
2023-02-05T08:11:30.675Z,4.07
2023-02-05T08:12:28.962Z,4.16
2023-02-05T08:13:28.922Z,4.18
2023-02-05T08:14:28.905Z,4.16
2023-02-05T08:15:28.882Z,4.25
2023-02-05T08:16:29.042Z,4.32
2023-02-05T08:17:28.850Z,4.28
2023-02-05T08:18:28.829Z,4.31
2023-02-05T08:19:28.807Z,4.38
2023-02-05T08:20:28.786Z,4.40
2023-02-05T08:21:28.776Z,4.34
2023-02-05T08:22:28.756Z,4.36
2023-02-05T08:23:28.738Z,4.45
2023-02-05T08:24:28.720Z,4.39
2023-02-05T08:25:28.694Z,4.48
2023-02-05T08:26:28.676Z,4.48
2023-02-05T08:27:30.102Z,4.48
2023-02-05T08:28:28.641Z,4.53
2023-02-05T08:29:28.632Z,4.46
2023-02-05T08:30:28.630Z,4.58
2023-02-05T08:31:28.606Z,4.46
2023-02-05T08:32:28.557Z,4.46
2023-02-05T08:33:28.539Z,4.49
2023-02-05T08:34:28.521Z,4.50
2023-02-05T08:35:28.506Z,4.39
2023-02-05T08:36:28.487Z,4.46
2023-02-05T08:37:28.471Z,4.48
2023-02-05T08:38:28.496Z,4.40
2023-02-05T08:39:28.424Z,4.42
2023-02-05T08:40:28.417Z,4.43
2023-02-05T08:41:28.389Z,4.43
2023-02-05T08:42:28.368Z,4.40
2023-02-05T08:43:28.353Z,4.36
2023-02-05T08:44:28.331Z,4.27
2023-02-05T08:45:28.453Z,4.40
2023-02-05T08:46:40.226Z,4.38
2023-02-05T08:47:28.281Z,4.46
2023-02-05T08:48:28.254Z,4.46
2023-02-05T08:49:28.236Z,4.53
2023-02-05T08:50:28.215Z,4.60
2023-02-05T08:51:28.201Z,4.61
2023-02-05T08:52:28.177Z,4.70
2023-02-05T08:53:28.179Z,4.75
2023-02-05T08:54:28.140Z,4.67
2023-02-05T08:55:28.127Z,4.67
2023-02-05T08:56:28.100Z,4.67
2023-02-05T08:57:28.084Z,4.67
2023-02-05T08:58:28.066Z,4.60
2023-02-05T08:59:28.045Z,4.63
2023-02-05T09:00:28.025Z,4.66
2023-02-05T09:01:28.180Z,4.68
2023-02-05T09:02:30.488Z,4.66
2023-02-05T09:03:27.973Z,4.64
2023-02-05T09:04:28.050Z,4.75
2023-02-05T09:05:27.943Z,4.79
2023-02-05T09:06:27.918Z,4.74
2023-02-05T09:07:27.907Z,4.87
2023-02-05T09:08:29.837Z,4.87
2023-02-05T09:09:27.920Z,4.83
2023-02-05T09:10:27.840Z,4.84
2023-02-05T09:11:27.820Z,4.79
2023-02-05T09:12:27.804Z,4.89
2023-02-05T09:13:27.795Z,4.87
2023-02-05T09:14:27.764Z,4.84
2023-02-05T09:15:27.789Z,4.87
2023-02-05T09:16:27.798Z,4.84
2023-02-05T09:17:27.716Z,4.92
2023-02-05T09:18:27.709Z,4.83
2023-02-05T09:19:27.684Z,4.79
2023-02-05T09:20:27.658Z,4.76
2023-02-05T09:21:27.650Z,4.79
2023-02-05T09:22:27.626Z,4.78
2023-02-05T09:23:27.606Z,4.86
2023-02-05T09:24:27.594Z,4.79
2023-02-05T09:25:27.577Z,4.82
2023-02-05T09:26:27.570Z,4.82
2023-02-05T09:27:27.534Z,4.84
2023-02-05T09:28:27.512Z,4.74
2023-02-05T09:29:27.497Z,4.74
2023-02-05T09:30:27.510Z,4.82
2023-02-05T09:31:27.594Z,4.82
2023-02-05T09:32:27.443Z,4.90
2023-02-05T09:33:27.432Z,4.82
2023-02-05T09:34:27.415Z,4.84
2023-02-05T09:35:27.384Z,4.84
2023-02-05T09:36:27.365Z,4.78
2023-02-05T09:37:27.357Z,4.79
2023-02-05T09:38:27.332Z,4.76
2023-02-05T09:40:05.595Z,4.83
2023-02-05T09:40:28.429Z,4.76
2023-02-05T09:41:27.269Z,4.76
2023-02-05T09:42:27.279Z,4.74
2023-02-05T09:43:27.228Z,4.75
2023-02-05T09:44:27.219Z,4.66
2023-02-05T09:45:27.792Z,4.76
2023-02-05T09:46:27.231Z,4.79
2023-02-05T09:47:27.167Z,4.86
2023-02-05T09:48:27.526Z,4.95
2023-02-05T09:49:27.123Z,4.90
2023-02-05T09:50:27.100Z,4.90
2023-02-05T09:51:27.130Z,5.00
2023-02-05T09:52:27.062Z,5.04
2023-02-05T09:53:27.045Z,5.07
2023-02-05T09:54:27.042Z,5.13
2023-02-05T09:55:27.009Z,5.08
2023-02-05T09:56:26.985Z,5.18
2023-02-05T09:57:26.970Z,5.13
2023-02-05T09:58:26.953Z,5.10
2023-02-05T09:59:26.929Z,5.10
2023-02-05T10:00:26.906Z,5.16
2023-02-05T10:01:26.921Z,5.13
2023-02-05T10:02:26.896Z,5.13
2023-02-05T10:03:26.868Z,5.07
2023-02-05T10:04:26.849Z,5.10
2023-02-05T10:05:26.826Z,5.10
2023-02-05T10:06:26.801Z,5.04
2023-02-05T10:07:26.786Z,4.97
2023-02-05T10:08:26.767Z,4.89
2023-02-05T10:09:26.742Z,4.70
2023-02-05T10:10:26.748Z,4.74
2023-02-05T10:11:26.700Z,4.75
2023-02-05T10:12:26.681Z,4.89
2023-02-05T10:13:26.667Z,4.97
2023-02-05T10:14:26.654Z,5.00
2023-02-05T10:15:26.628Z,5.07
2023-02-05T10:16:26.618Z,5.15
2023-02-05T10:17:26.615Z,5.13
2023-02-05T10:18:26.567Z,5.25
2023-02-05T10:19:26.547Z,5.20
2023-02-05T10:20:26.623Z,5.25
2023-02-05T10:21:26.519Z,5.40
2023-02-05T10:22:26.503Z,5.44
2023-02-05T10:23:26.473Z,5.46
2023-02-05T10:24:26.455Z,5.51
2023-02-05T10:25:26.450Z,5.55
2023-02-05T10:26:26.421Z,5.58
2023-02-05T10:27:26.407Z,5.56
2023-02-05T10:28:26.394Z,5.40
2023-02-05T10:29:26.381Z,5.44
2023-02-05T10:30:26.400Z,5.47
2023-02-05T10:31:26.400Z,5.43
2023-02-05T10:32:26.316Z,5.54
2023-02-05T10:33:26.299Z,5.56
2023-02-05T10:34:26.274Z,5.56
2023-02-05T10:35:26.266Z,5.69
2023-02-05T10:36:26.243Z,5.80
2023-02-05T10:37:26.222Z,5.79
2023-02-05T10:38:26.213Z,5.73
2023-02-05T10:39:26.185Z,5.79
2023-02-05T10:40:26.170Z,5.74
2023-02-05T10:41:26.144Z,5.79
2023-02-05T10:42:26.132Z,5.77
2023-02-05T10:43:26.113Z,5.77
2023-02-05T10:44:26.089Z,5.72
2023-02-05T10:45:26.081Z,5.70
2023-02-05T10:46:26.057Z,5.64
2023-02-05T10:47:26.032Z,5.67
2023-02-05T10:48:26.013Z,5.59
2023-02-05T10:49:25.996Z,5.55
2023-02-05T10:50:25.975Z,5.58
2023-02-05T10:51:25.956Z,5.55
2023-02-05T10:52:25.935Z,5.61
2023-02-05T10:53:25.945Z,5.62
2023-02-05T10:54:25.911Z,5.70
2023-02-05T10:55:25.892Z,5.70
2023-02-05T10:56:25.877Z,5.72
2023-02-05T10:57:25.852Z,5.72
2023-02-05T10:58:25.836Z,5.77
2023-02-05T10:59:26.973Z,5.77
2023-02-05T11:00:25.826Z,5.80
2023-02-05T11:01:25.813Z,5.79
2023-02-05T11:02:25.787Z,5.76
2023-02-05T11:03:25.737Z,5.77
2023-02-05T11:04:25.725Z,5.73
2023-02-05T11:05:25.730Z,5.76
2023-02-05T11:06:25.680Z,5.72
2023-02-05T11:07:25.663Z,5.72
2023-02-05T11:08:25.640Z,5.76
2023-02-05T11:09:25.653Z,5.76
2023-02-05T11:10:25.619Z,5.70
2023-02-05T11:11:25.585Z,5.65
2023-02-05T11:12:25.572Z,5.61
2023-02-05T11:13:25.554Z,5.70
2023-02-05T11:14:25.534Z,5.72
2023-02-05T11:15:25.521Z,5.73
2023-02-05T11:16:25.499Z,5.70
2023-02-05T11:17:25.481Z,5.64
2023-02-05T11:18:25.465Z,5.70
2023-02-05T11:19:25.432Z,5.67
2023-02-05T11:20:25.417Z,5.64
2023-02-05T11:21:25.402Z,5.61
2023-02-05T11:22:25.382Z,5.62
2023-02-05T11:23:25.363Z,5.70
2023-02-05T11:24:25.347Z,5.65
2023-02-05T11:25:25.343Z,5.74
2023-02-05T11:26:25.310Z,5.74
2023-02-05T11:27:25.294Z,5.74
2023-02-05T11:28:25.274Z,5.73
2023-02-05T11:29:25.255Z,5.72
2023-02-05T11:30:49.573Z,5.62
2023-02-05T11:31:25.292Z,5.67
2023-02-05T11:32:25.261Z,5.67
2023-02-05T11:33:25.200Z,5.64
2023-02-05T11:34:25.160Z,5.56
2023-02-05T11:35:25.183Z,5.56
2023-02-05T11:36:25.153Z,5.61
2023-02-05T11:37:25.112Z,5.51
2023-02-05T11:38:25.088Z,5.43
2023-02-05T11:39:25.072Z,5.29
2023-02-05T11:40:25.058Z,5.33
2023-02-05T11:41:25.039Z,5.28
2023-02-05T11:42:25.012Z,5.20
2023-02-05T11:43:24.999Z,5.23
2023-02-05T11:44:24.983Z,5.25
2023-02-05T11:45:24.959Z,5.25
2023-02-05T11:46:24.981Z,5.36
2023-02-05T11:47:24.919Z,5.29
2023-02-05T11:48:24.904Z,5.26
2023-02-05T11:49:30.158Z,5.29
2023-02-05T11:50:24.868Z,5.29
2023-02-05T11:51:24.842Z,5.26
2023-02-05T11:52:24.840Z,5.22
2023-02-05T11:53:24.804Z,5.25
2023-02-05T11:54:24.807Z,5.34
2023-02-05T11:55:24.774Z,5.34
2023-02-05T11:56:25.505Z,5.41
2023-02-05T11:57:24.741Z,5.40
2023-02-05T11:58:34.901Z,5.43
2023-02-05T11:59:24.712Z,5.36
2023-02-05T12:00:24.678Z,5.41
2023-02-05T12:01:24.674Z,5.51
2023-02-05T12:02:24.638Z,5.49
2023-02-05T12:03:24.632Z,5.51
2023-02-05T12:04:24.615Z,5.62
2023-02-05T12:05:24.584Z,5.65
2023-02-05T12:06:24.578Z,5.69
2023-02-05T12:07:24.549Z,5.64
2023-02-05T12:08:24.530Z,5.70
2023-02-05T12:09:24.508Z,5.62
2023-02-05T12:10:24.496Z,5.64
2023-02-05T12:11:24.472Z,5.62
2023-02-05T12:12:24.454Z,5.59
2023-02-05T12:13:24.437Z,5.61
2023-02-05T12:14:24.423Z,5.52
2023-02-05T12:15:24.393Z,5.56
2023-02-05T12:16:24.487Z,5.49
2023-02-05T12:17:24.360Z,5.43
2023-02-05T12:18:24.346Z,5.51
2023-02-05T12:19:24.323Z,5.54
2023-02-05T12:20:24.303Z,5.52
2023-02-05T12:21:24.287Z,5.56
2023-02-05T12:22:24.265Z,5.62
2023-02-05T12:23:24.268Z,5.69
2023-02-05T12:24:24.244Z,5.73
2023-02-05T12:25:24.210Z,5.77
2023-02-05T12:26:24.196Z,5.79
2023-02-05T12:27:24.178Z,5.76
2023-02-05T12:28:24.152Z,5.73
2023-02-05T12:29:24.140Z,5.83
2023-02-05T12:30:24.214Z,5.81
2023-02-05T12:31:24.165Z,5.92
2023-02-05T12:32:24.105Z,5.90
2023-02-05T12:33:24.058Z,5.94
2023-02-05T12:34:24.042Z,5.98
2023-02-05T12:35:24.020Z,6.01
2023-02-05T12:36:24.000Z,6.01
2023-02-05T12:37:24.014Z,6.07
2023-02-05T12:38:32.080Z,6.16
2023-02-05T12:39:23.946Z,6.15
2023-02-05T12:40:23.929Z,6.17
2023-02-05T12:41:23.906Z,6.10
2023-02-05T12:42:23.894Z,6.13
2023-02-05T12:43:23.869Z,6.01
2023-02-05T12:44:23.876Z,6.12
2023-02-05T12:45:23.834Z,6.09
2023-02-05T12:46:23.816Z,6.07
2023-02-05T12:47:23.795Z,6.07
2023-02-05T12:48:23.791Z,6.10
2023-02-05T12:49:23.762Z,6.10
2023-02-05T12:50:23.743Z,6.13
2023-02-05T12:51:23.718Z,6.13
2023-02-05T12:52:23.704Z,6.17
2023-02-05T12:53:23.682Z,6.29
2023-02-05T12:54:23.673Z,6.43
2023-02-05T12:55:23.646Z,6.41
2023-02-05T12:56:23.635Z,6.54
2023-02-05T12:57:23.609Z,6.59
2023-02-05T12:58:23.598Z,6.57
2023-02-05T12:59:23.648Z,6.68
2023-02-05T13:00:23.558Z,6.68
2023-02-05T13:01:23.579Z,6.80
2023-02-05T13:02:23.518Z,6.87
2023-02-05T13:03:23.520Z,6.89
2023-02-05T13:04:23.591Z,6.89
2023-02-05T13:05:23.465Z,7.04
2023-02-05T13:06:23.459Z,7.00
2023-02-05T13:07:23.521Z,7.25
2023-02-05T13:08:23.415Z,7.33
2023-02-05T13:09:23.395Z,7.31
2023-02-05T13:10:23.384Z,7.47
2023-02-05T13:11:23.368Z,7.41
2023-02-05T13:12:23.350Z,7.37
2023-02-05T13:13:23.325Z,7.39
2023-02-05T13:14:23.303Z,7.40
2023-02-05T13:15:23.297Z,7.47
2023-02-05T13:16:23.298Z,7.56
2023-02-05T13:17:23.247Z,7.64
2023-02-05T13:18:23.232Z,7.72
2023-02-05T13:19:23.210Z,7.69
2023-02-05T13:20:23.199Z,7.55
2023-02-05T13:21:23.287Z,7.44